Chapada Diamantina, Brazil
Current Conditions -  °F | °C
As of 5:00 AM on Thursday 18 Dec 2014 (Local Time) from SBQV Reporting Station
Heavy Rain Heavy Rain  
Wind Chill: 68°   Ceiling: 7000
Heat Index: 68°   Visibility: 0.93mi
Dew Point: 68°   Wind: 7mph
Humidity: 100%   Direction: 80°E
Pressure: 29.97"   Gusts: NA
Location:  12.48°S, 41.28°W
Report Text: SBQV 180800Z 08006KT 1500 +RA FEW004 OVC070 20/20 Q1015
Loading
Personal Weather Stations






























Interactive Weather Map New forecast layout! Learn more

10-Day Weather Forecast

Advertisements
Track Severe Weather on mobile